sensor_id;sensor_type;location;lat;lon;timestamp;temperature;humidity
5675;DHT22;2860;54.284;10.158;2022-09-30T00:01:26;9.30;99.90
5675;DHT22;2860;54.284;10.158;2022-09-30T00:03:55;9.30;99.90
5675;DHT22;2860;54.284;10.158;2022-09-30T00:06:22;9.30;99.90
5675;DHT22;2860;54.284;10.158;2022-09-30T00:08:49;9.30;99.90
5675;DHT22;2860;54.284;10.158;2022-09-30T00:11:17;9.30;99.90
5675;DHT22;2860;54.284;10.158;2022-09-30T00:13:45;9.30;99.90
5675;DHT22;2860;54.284;10.158;2022-09-30T00:16:12;9.30;99.90
5675;DHT22;2860;54.284;10.158;2022-09-30T00:18:39;9.30;99.90
5675;DHT22;2860;54.284;10.158;2022-09-30T00:21:07;9.30;99.90
5675;DHT22;2860;54.284;10.158;2022-09-30T00:23:33;9.30;99.90
5675;DHT22;2860;54.284;10.158;2022-09-30T00:26:00;9.30;99.90
5675;DHT22;2860;54.284;10.158;2022-09-30T00:28:27;9.40;99.90
5675;DHT22;2860;54.284;10.158;2022-09-30T00:30:56;9.40;99.90
5675;DHT22;2860;54.284;10.158;2022-09-30T00:33:22;9.40;99.90
5675;DHT22;2860;54.284;10.158;2022-09-30T00:35:48;9.40;99.90
5675;DHT22;2860;54.284;10.158;2022-09-30T00:38:13;9.40;99.90
5675;DHT22;2860;54.284;10.158;2022-09-30T00:40:39;9.40;99.90
5675;DHT22;2860;54.284;10.158;2022-09-30T00:43:16;9.40;99.90
5675;DHT22;2860;54.284;10.158;2022-09-30T00:45:48;9.30;99.90
5675;DHT22;2860;54.284;10.158;2022-09-30T00:48:35;9.30;99.90
5675;DHT22;2860;54.284;10.158;2022-09-30T00:51:04;9.30;99.90
5675;DHT22;2860;54.284;10.158;2022-09-30T00:53:49;9.30;99.90
5675;DHT22;2860;54.284;10.158;2022-09-30T00:56:22;9.30;99.90
5675;DHT22;2860;54.284;10.158;2022-09-30T00:58:50;9.30;99.90
5675;DHT22;2860;54.284;10.158;2022-09-30T01:01:18;9.30;99.90
5675;DHT22;2860;54.284;10.158;2022-09-30T01:03:52;9.30;99.90
5675;DHT22;2860;54.284;10.158;2022-09-30T01:06:21;9.30;99.90
5675;DHT22;2860;54.284;10.158;2022-09-30T01:08:47;9.30;99.90
5675;DHT22;2860;54.284;10.158;2022-09-30T01:11:13;9.30;99.90
5675;DHT22;2860;54.284;10.158;2022-09-30T01:13:40;9.30;99.90
5675;DHT22;2860;54.284;10.158;2022-09-30T01:16:24;9.30;99.90
5675;DHT22;2860;54.284;10.158;2022-09-30T01:19:20;9.30;99.90
5675;DHT22;2860;54.284;10.158;2022-09-30T01:22:17;9.30;99.90
5675;DHT22;2860;54.284;10.158;2022-09-30T01:25:00;9.30;99.90
5675;DHT22;2860;54.284;10.158;2022-09-30T01:28:13;9.30;99.90
5675;DHT22;2860;54.284;10.158;2022-09-30T01:34:03;9.40;99.90
5675;DHT22;2860;54.284;10.158;2022-09-30T01:42:54;9.40;99.90
5675;DHT22;2860;54.284;10.158;2022-09-30T01:45:34;9.40;99.90
5675;DHT22;2860;54.284;10.158;2022-09-30T01:48:19;9.40;99.90
5675;DHT22;2860;54.284;10.158;2022-09-30T01:50:58;9.40;99.90
5675;DHT22;2860;54.284;10.158;2022-09-30T01:53:36;9.40;99.90
5675;DHT22;2860;54.284;10.158;2022-09-30T01:56:31;9.50;99.90
5675;DHT22;2860;54.284;10.158;2022-09-30T01:59:15;9.40;99.90
5675;DHT22;2860;54.284;10.158;2022-09-30T02:01:52;9.50;99.90
5675;DHT22;2860;54.284;10.158;2022-09-30T02:04:32;9.50;99.90
5675;DHT22;2860;54.284;10.158;2022-09-30T02:07:04;9.50;99.90
5675;DHT22;2860;54.284;10.158;2022-09-30T02:09:40;9.50;99.90
5675;DHT22;2860;54.284;10.158;2022-09-30T02:12:09;9.40;99.90
5675;DHT22;2860;54.284;10.158;2022-09-30T02:14:45;9.50;99.90
5675;DHT22;2860;54.284;10.158;2022-09-30T02:17:19;9.50;99.90
5675;DHT22;2860;54.284;10.158;2022-09-30T02:20:11;9.50;99.90
5675;DHT22;2860;54.284;10.158;2022-09-30T02:22:42;9.50;99.90
5675;DHT22;2860;54.284;10.158;2022-09-30T02:25:15;9.50;99.90
5675;DHT22;2860;54.284;10.158;2022-09-30T02:27:49;9.50;99.90
5675;DHT22;2860;54.284;10.158;2022-09-30T02:30:17;9.50;99.90
5675;DHT22;2860;54.284;10.158;2022-09-30T02:32:53;9.60;99.90
5675;DHT22;2860;54.284;10.158;2022-09-30T02:35:26;9.50;99.90
5675;DHT22;2860;54.284;10.158;2022-09-30T02:37:57;9.60;99.90
5675;DHT22;2860;54.284;10.158;2022-09-30T02:40:34;9.60;99.90
5675;DHT22;2860;54.284;10.158;2022-09-30T02:43:04;9.50;99.90
5675;DHT22;2860;54.284;10.158;2022-09-30T02:45:37;9.60;99.90
5675;DHT22;2860;54.284;10.158;2022-09-30T02:48:29;9.50;99.90
5675;DHT22;2860;54.284;10.158;2022-09-30T02:51:09;9.60;99.90
5675;DHT22;2860;54.284;10.158;2022-09-30T02:57:12;9.60;99.90
5675;DHT22;2860;54.284;10.158;2022-09-30T02:59:28;9.60;99.90
5675;DHT22;2860;54.284;10.158;2022-09-30T03:01:54;9.60;99.90
5675;DHT22;2860;54.284;10.158;2022-09-30T03:04:28;9.50;99.90
5675;DHT22;2860;54.284;10.158;2022-09-30T03:06:55;9.60;99.90
5675;DHT22;2860;54.284;10.158;2022-09-30T03:09:24;9.60;99.90
5675;DHT22;2860;54.284;10.158;2022-09-30T03:11:53;9.60;99.90
5675;DHT22;2860;54.284;10.158;2022-09-30T03:20:29;9.60;99.90
5675;DHT22;2860;54.284;10.158;2022-09-30T03:25:54;9.50;99.90
5675;DHT22;2860;54.284;10.158;2022-09-30T03:28:31;9.50;99.90
5675;DHT22;2860;54.284;10.158;2022-09-30T03:31:19;9.50;99.90
5675;DHT22;2860;54.284;10.158;2022-09-30T03:33:52;9.50;99.90
5675;DHT22;2860;54.284;10.158;2022-09-30T03:36:38;9.50;99.90
5675;DHT22;2860;54.284;10.158;2022-09-30T03:42:07;9.50;99.90
5675;DHT22;2860;54.284;10.158;2022-09-30T03:47:13;9.50;99.90
5675;DHT22;2860;54.284;10.158;2022-09-30T03:49:50;9.50;99.90
5675;DHT22;2860;54.284;10.158;2022-09-30T03:52:16;9.50;99.90
5675;DHT22;2860;54.284;10.158;2022-09-30T03:54:50;9.50;99.90
5675;DHT22;2860;54.284;10.158;2022-09-30T03:57:16;9.50;99.90
5675;DHT22;2860;54.284;10.158;2022-09-30T03:59:42;9.50;99.90
5675;DHT22;2860;54.284;10.158;2022-09-30T04:02:08;9.50;99.90
5675;DHT22;2860;54.284;10.158;2022-09-30T04:04:34;9.50;99.90
5675;DHT22;2860;54.284;10.158;2022-09-30T04:07:01;9.60;99.90
5675;DHT22;2860;54.284;10.158;2022-09-30T04:09:26;9.50;99.90
5675;DHT22;2860;54.284;10.158;2022-09-30T04:11:52;9.50;99.90
5675;DHT22;2860;54.284;10.158;2022-09-30T04:14:17;9.50;99.90
5675;DHT22;2860;54.284;10.158;2022-09-30T04:16:43;9.50;99.90
5675;DHT22;2860;54.284;10.158;2022-09-30T04:19:08;9.50;99.90
5675;DHT22;2860;54.284;10.158;2022-09-30T04:21:34;9.50;99.90
5675;DHT22;2860;54.284;10.158;2022-09-30T04:23:59;9.50;99.90
5675;DHT22;2860;54.284;10.158;2022-09-30T04:26:25;9.50;99.90
5675;DHT22;2860;54.284;10.158;2022-09-30T04:28:51;9.50;99.90
5675;DHT22;2860;54.284;10.158;2022-09-30T04:31:17;9.50;99.90
5675;DHT22;2860;54.284;10.158;2022-09-30T04:33:43;9.50;99.90
5675;DHT22;2860;54.284;10.158;2022-09-30T04:36:09;9.50;99.90
5675;DHT22;2860;54.284;10.158;2022-09-30T04:38:35;9.50;99.90
5675;DHT22;2860;54.284;10.158;2022-09-30T04:41:06;9.50;99.90
5675;DHT22;2860;54.284;10.158;2022-09-30T04:43:32;9.50;99.90
5675;DHT22;2860;54.284;10.158;2022-09-30T04:45:59;9.50;99.90
5675;DHT22;2860;54.284;10.158;2022-09-30T04:48:25;9.50;99.90
5675;DHT22;2860;54.284;10.158;2022-09-30T04:50:52;9.60;99.90
5675;DHT22;2860;54.284;10.158;2022-09-30T04:53:19;9.50;99.90
5675;DHT22;2860;54.284;10.158;2022-09-30T04:55:45;9.50;99.90
5675;DHT22;2860;54.284;10.158;2022-09-30T04:58:11;9.60;99.90
5675;DHT22;2860;54.284;10.158;2022-09-30T05:00:37;9.60;99.90
5675;DHT22;2860;54.284;10.158;2022-09-30T05:03:03;9.50;99.90
5675;DHT22;2860;54.284;10.158;2022-09-30T05:05:30;9.60;99.90
5675;DHT22;2860;54.284;10.158;2022-09-30T05:08:00;9.60;99.90
5675;DHT22;2860;54.284;10.158;2022-09-30T05:10:26;9.60;99.90
5675;DHT22;2860;54.284;10.158;2022-09-30T05:12:52;9.60;99.90
5675;DHT22;2860;54.284;10.158;2022-09-30T05:15:18;9.60;99.90
5675;DHT22;2860;54.284;10.158;2022-09-30T05:17:43;9.60;99.90
5675;DHT22;2860;54.284;10.158;2022-09-30T05:20:09;9.60;99.90
5675;DHT22;2860;54.284;10.158;2022-09-30T05:22:35;9.60;99.90
5675;DHT22;2860;54.284;10.158;2022-09-30T05:25:01;9.60;99.90
5675;DHT22;2860;54.284;10.158;2022-09-30T05:27:29;9.60;99.90
5675;DHT22;2860;54.284;10.158;2022-09-30T05:29:54;9.60;99.90
5675;DHT22;2860;54.284;10.158;2022-09-30T05:32:20;9.60;99.90
5675;DHT22;2860;54.284;10.158;2022-09-30T05:34:46;9.60;99.90
5675;DHT22;2860;54.284;10.158;2022-09-30T05:37:12;9.60;99.90
5675;DHT22;2860;54.284;10.158;2022-09-30T05:39:37;9.60;99.90
5675;DHT22;2860;54.284;10.158;2022-09-30T05:42:03;9.60;99.90
5675;DHT22;2860;54.284;10.158;2022-09-30T05:44:28;9.60;99.90
5675;DHT22;2860;54.284;10.158;2022-09-30T05:46:54;9.60;99.90
5675;DHT22;2860;54.284;10.158;2022-09-30T05:49:19;9.70;99.90
5675;DHT22;2860;54.284;10.158;2022-09-30T05:51:46;9.70;99.90
5675;DHT22;2860;54.284;10.158;2022-09-30T05:54:12;9.70;99.90
5675;DHT22;2860;54.284;10.158;2022-09-30T05:56:38;9.70;99.90
5675;DHT22;2860;54.284;10.158;2022-09-30T05:59:04;9.70;99.90
5675;DHT22;2860;54.284;10.158;2022-09-30T06:01:30;9.70;99.90
5675;DHT22;2860;54.284;10.158;2022-09-30T06:03:55;9.70;99.90
5675;DHT22;2860;54.284;10.158;2022-09-30T06:06:21;9.70;99.90
5675;DHT22;2860;54.284;10.158;2022-09-30T06:08:47;9.80;99.90
5675;DHT22;2860;54.284;10.158;2022-09-30T06:11:16;9.80;99.90
5675;DHT22;2860;54.284;10.158;2022-09-30T06:13:43;9.80;99.90
5675;DHT22;2860;54.284;10.158;2022-09-30T06:16:09;9.80;99.90
5675;DHT22;2860;54.284;10.158;2022-09-30T06:18:35;9.80;99.90
5675;DHT22;2860;54.284;10.158;2022-09-30T06:21:03;9.80;99.90
5675;DHT22;2860;54.284;10.158;2022-09-30T06:23:30;9.80;99.90
5675;DHT22;2860;54.284;10.158;2022-09-30T06:25:56;9.90;99.90
5675;DHT22;2860;54.284;10.158;2022-09-30T06:28:22;9.90;99.90
5675;DHT22;2860;54.284;10.158;2022-09-30T06:30:49;9.90;99.90
5675;DHT22;2860;54.284;10.158;2022-09-30T06:33:15;9.90;99.90
5675;DHT22;2860;54.284;10.158;2022-09-30T06:35:42;9.90;99.90
5675;DHT22;2860;54.284;10.158;2022-09-30T06:38:09;9.90;99.90
5675;DHT22;2860;54.284;10.158;2022-09-30T06:40:35;10.00;99.90
5675;DHT22;2860;54.284;10.158;2022-09-30T06:43:00;10.00;99.90
5675;DHT22;2860;54.284;10.158;2022-09-30T06:45:27;10.10;99.90
5675;DHT22;2860;54.284;10.158;2022-09-30T06:48:00;10.20;99.90
5675;DHT22;2860;54.284;10.158;2022-09-30T06:50:26;10.30;99.90
5675;DHT22;2860;54.284;10.158;2022-09-30T06:52:51;10.40;99.90
5675;DHT22;2860;54.284;10.158;2022-09-30T06:55:21;10.40;99.90
5675;DHT22;2860;54.284;10.158;2022-09-30T06:57:48;10.50;99.90
5675;DHT22;2860;54.284;10.158;2022-09-30T07:00:14;10.40;99.90
5675;DHT22;2860;54.284;10.158;2022-09-30T07:02:41;10.40;99.90
5675;DHT22;2860;54.284;10.158;2022-09-30T07:05:08;10.40;99.90
5675;DHT22;2860;54.284;10.158;2022-09-30T07:07:34;10.40;99.90
5675;DHT22;2860;54.284;10.158;2022-09-30T07:10:01;10.40;99.90
5675;DHT22;2860;54.284;10.158;2022-09-30T07:12:27;10.30;99.90
5675;DHT22;2860;54.284;10.158;2022-09-30T07:14:53;10.30;99.90
5675;DHT22;2860;54.284;10.158;2022-09-30T07:17:20;10.30;99.90
5675;DHT22;2860;54.284;10.158;2022-09-30T07:19:46;10.40;99.90
5675;DHT22;2860;54.284;10.158;2022-09-30T07:22:11;10.40;99.90
5675;DHT22;2860;54.284;10.158;2022-09-30T07:24:53;10.50;99.90
5675;DHT22;2860;54.284;10.158;2022-09-30T07:27:19;10.60;99.90
5675;DHT22;2860;54.284;10.158;2022-09-30T07:29:45;10.70;99.90
5675;DHT22;2860;54.284;10.158;2022-09-30T07:32:11;10.80;99.90
5675;DHT22;2860;54.284;10.158;2022-09-30T07:34:37;11.00;99.90
5675;DHT22;2860;54.284;10.158;2022-09-30T07:37:06;11.10;99.90
5675;DHT22;2860;54.284;10.158;2022-09-30T07:39:33;11.10;99.90
5675;DHT22;2860;54.284;10.158;2022-09-30T07:41:59;11.10;99.90
5675;DHT22;2860;54.284;10.158;2022-09-30T07:44:26;11.20;99.90
5675;DHT22;2860;54.284;10.158;2022-09-30T07:46:52;11.20;99.90
5675;DHT22;2860;54.284;10.158;2022-09-30T07:49:19;11.20;99.90
5675;DHT22;2860;54.284;10.158;2022-09-30T07:51:51;11.20;99.90
5675;DHT22;2860;54.284;10.158;2022-09-30T07:54:19;11.10;99.90
5675;DHT22;2860;54.284;10.158;2022-09-30T07:56:47;11.10;99.90
5675;DHT22;2860;54.284;10.158;2022-09-30T07:59:13;11.20;99.90
5675;DHT22;2860;54.284;10.158;2022-09-30T08:01:38;11.30;99.90
5675;DHT22;2860;54.284;10.158;2022-09-30T08:04:06;11.40;99.90
5675;DHT22;2860;54.284;10.158;2022-09-30T08:06:39;11.60;99.90
5675;DHT22;2860;54.284;10.158;2022-09-30T08:09:07;11.90;99.90
5675;DHT22;2860;54.284;10.158;2022-09-30T08:11:33;12.10;99.90
5675;DHT22;2860;54.284;10.158;2022-09-30T08:13:59;12.30;99.90
5675;DHT22;2860;54.284;10.158;2022-09-30T08:16:25;12.50;99.90
5675;DHT22;2860;54.284;10.158;2022-09-30T08:18:57;12.60;99.90
5675;DHT22;2860;54.284;10.158;2022-09-30T08:21:24;12.50;99.90
5675;DHT22;2860;54.284;10.158;2022-09-30T08:23:49;12.50;99.90
5675;DHT22;2860;54.284;10.158;2022-09-30T08:26:15;12.50;99.90
5675;DHT22;2860;54.284;10.158;2022-09-30T08:28:42;12.50;99.90
5675;DHT22;2860;54.284;10.158;2022-09-30T08:31:10;12.60;99.90
5675;DHT22;2860;54.284;10.158;2022-09-30T08:33:36;12.60;99.90
5675;DHT22;2860;54.284;10.158;2022-09-30T08:36:10;12.70;99.90
5675;DHT22;2860;54.284;10.158;2022-09-30T08:38:36;12.80;99.90
5675;DHT22;2860;54.284;10.158;2022-09-30T08:43:42;12.90;99.90
5675;DHT22;2860;54.284;10.158;2022-09-30T08:49:44;12.90;99.90
5675;DHT22;2860;54.284;10.158;2022-09-30T08:52:16;12.90;99.90
5675;DHT22;2860;54.284;10.158;2022-09-30T08:54:47;12.80;99.90
5675;DHT22;2860;54.284;10.158;2022-09-30T08:57:13;12.80;99.90
5675;DHT22;2860;54.284;10.158;2022-09-30T08:59:53;12.80;99.90
5675;DHT22;2860;54.284;10.158;2022-09-30T09:02:29;12.80;99.90
5675;DHT22;2860;54.284;10.158;2022-09-30T09:04:58;12.90;99.90
5675;DHT22;2860;54.284;10.158;2022-09-30T09:08:02;12.90;99.90
5675;DHT22;2860;54.284;10.158;2022-09-30T09:10:42;13.00;99.90
5675;DHT22;2860;54.284;10.158;2022-09-30T09:15:47;13.30;99.90
5675;DHT22;2860;54.284;10.158;2022-09-30T09:18:35;13.40;99.90
5675;DHT22;2860;54.284;10.158;2022-09-30T09:21:19;13.40;99.90
5675;DHT22;2860;54.284;10.158;2022-09-30T09:23:45;13.40;99.90
5675;DHT22;2860;54.284;10.158;2022-09-30T09:26:13;13.50;99.90
5675;DHT22;2860;54.284;10.158;2022-09-30T09:28:48;13.50;99.90
5675;DHT22;2860;54.284;10.158;2022-09-30T09:31:17;13.60;99.90
5675;DHT22;2860;54.284;10.158;2022-09-30T09:33:43;13.60;99.90
5675;DHT22;2860;54.284;10.158;2022-09-30T09:44:49;13.60;99.90
5675;DHT22;2860;54.284;10.158;2022-09-30T09:47:16;13.60;99.90
5675;DHT22;2860;54.284;10.158;2022-09-30T09:52:18;13.60;99.90
5675;DHT22;2860;54.284;10.158;2022-09-30T09:54:52;13.60;99.90
5675;DHT22;2860;54.284;10.158;2022-09-30T09:57:22;13.70;99.90
5675;DHT22;2860;54.284;10.158;2022-09-30T10:03:12;14.20;99.90
5675;DHT22;2860;54.284;10.158;2022-09-30T10:05:42;14.40;99.90
5675;DHT22;2860;54.284;10.158;2022-09-30T10:08:12;14.50;99.90
5675;DHT22;2860;54.284;10.158;2022-09-30T10:10:47;14.50;99.90
5675;DHT22;2860;54.284;10.158;2022-09-30T10:15:55;14.60;99.90
5675;DHT22;2860;54.284;10.158;2022-09-30T10:18:35;14.80;99.90
5675;DHT22;2860;54.284;10.158;2022-09-30T10:21:22;14.90;99.90
5675;DHT22;2860;54.284;10.158;2022-09-30T10:23:48;14.90;99.90
5675;DHT22;2860;54.284;10.158;2022-09-30T10:28:51;14.80;99.90
5675;DHT22;2860;54.284;10.158;2022-09-30T10:36:42;14.80;99.90
5675;DHT22;2860;54.284;10.158;2022-09-30T10:39:23;14.80;99.90
5675;DHT22;2860;54.284;10.158;2022-09-30T10:44:54;14.80;99.90
5675;DHT22;2860;54.284;10.158;2022-09-30T10:47:22;14.90;99.90
5675;DHT22;2860;54.284;10.158;2022-09-30T10:50:07;15.00;99.90
5675;DHT22;2860;54.284;10.158;2022-09-30T10:52:35;15.00;99.90
5675;DHT22;2860;54.284;10.158;2022-09-30T10:55:26;14.80;99.90
5675;DHT22;2860;54.284;10.158;2022-09-30T10:57:54;14.80;99.90
5675;DHT22;2860;54.284;10.158;2022-09-30T11:00:23;14.80;99.90
5675;DHT22;2860;54.284;10.158;2022-09-30T11:03:13;14.70;99.90
5675;DHT22;2860;54.284;10.158;2022-09-30T11:05:43;14.80;99.90
5675;DHT22;2860;54.284;10.158;2022-09-30T11:08:27;15.00;99.90
5675;DHT22;2860;54.284;10.158;2022-09-30T11:14:25;15.10;99.90
5675;DHT22;2860;54.284;10.158;2022-09-30T11:19:48;15.10;99.90
5675;DHT22;2860;54.284;10.158;2022-09-30T11:25:00;15.00;99.90
5675;DHT22;2860;54.284;10.158;2022-09-30T11:33:16;14.70;99.90
5675;DHT22;2860;54.284;10.158;2022-09-30T11:36:21;14.60;99.90
5675;DHT22;2860;54.284;10.158;2022-09-30T11:39:12;14.60;99.90
5675;DHT22;2860;54.284;10.158;2022-09-30T11:41:45;14.90;99.90
5675;DHT22;2860;54.284;10.158;2022-09-30T11:44:28;15.30;99.90
5675;DHT22;2860;54.284;10.158;2022-09-30T11:58:05;15.30;99.90
5675;DHT22;2860;54.284;10.158;2022-09-30T12:00:35;15.10;99.90
5675;DHT22;2860;54.284;10.158;2022-09-30T12:03:28;15.00;99.90
5675;DHT22;2860;54.284;10.158;2022-09-30T12:06:01;14.90;99.90
5675;DHT22;2860;54.284;10.158;2022-09-30T12:08:33;14.70;99.90
5675;DHT22;2860;54.284;10.158;2022-09-30T12:11:09;14.80;99.90
5675;DHT22;2860;54.284;10.158;2022-09-30T12:13:42;15.00;99.90
5675;DHT22;2860;54.284;10.158;2022-09-30T12:16:18;15.20;99.90
5675;DHT22;2860;54.284;10.158;2022-09-30T12:18:59;15.20;99.90
5675;DHT22;2860;54.284;10.158;2022-09-30T12:21:37;15.30;99.90
5675;DHT22;2860;54.284;10.158;2022-09-30T12:24:56;15.20;99.90
5675;DHT22;2860;54.284;10.158;2022-09-30T12:27:34;15.30;99.90
5675;DHT22;2860;54.284;10.158;2022-09-30T12:30:15;15.20;99.90
5675;DHT22;2860;54.284;10.158;2022-09-30T12:35:54;15.20;99.90
5675;DHT22;2860;54.284;10.158;2022-09-30T12:43:53;15.20;99.90
5675;DHT22;2860;54.284;10.158;2022-09-30T12:49:04;15.30;99.90
5675;DHT22;2860;54.284;10.158;2022-09-30T12:51:32;15.20;99.90
5675;DHT22;2860;54.284;10.158;2022-09-30T12:54:09;15.20;99.90
5675;DHT22;2860;54.284;10.158;2022-09-30T12:56:41;15.20;99.90
5675;DHT22;2860;54.284;10.158;2022-09-30T12:59:07;15.20;99.90
5675;DHT22;2860;54.284;10.158;2022-09-30T13:01:38;15.10;99.90
5675;DHT22;2860;54.284;10.158;2022-09-30T13:11:39;15.10;99.90
5675;DHT22;2860;54.284;10.158;2022-09-30T13:19:46;15.30;99.90
5675;DHT22;2860;54.284;10.158;2022-09-30T13:30:43;15.20;99.90
5675;DHT22;2860;54.284;10.158;2022-09-30T13:32:45;15.20;99.90
5675;DHT22;2860;54.284;10.158;2022-09-30T13:40:57;15.20;99.90
5675;DHT22;2860;54.284;10.158;2022-09-30T13:43:44;15.20;99.90
5675;DHT22;2860;54.284;10.158;2022-09-30T13:46:48;15.20;99.90
5675;DHT22;2860;54.284;10.158;2022-09-30T13:49:29;15.30;99.90
5675;DHT22;2860;54.284;10.158;2022-09-30T13:51:58;15.30;99.90
5675;DHT22;2860;54.284;10.158;2022-09-30T13:54:32;15.30;99.90
5675;DHT22;2860;54.284;10.158;2022-09-30T13:57:02;15.40;99.90
5675;DHT22;2860;54.284;10.158;2022-09-30T14:02:28;15.60;99.90
5675;DHT22;2860;54.284;10.158;2022-09-30T14:09:01;15.20;99.90
5675;DHT22;2860;54.284;10.158;2022-09-30T14:16:57;14.90;99.90
5675;DHT22;2860;54.284;10.158;2022-09-30T14:22:03;14.90;99.90
5675;DHT22;2860;54.284;10.158;2022-09-30T14:24:33;14.80;99.90
5675;DHT22;2860;54.284;10.158;2022-09-30T14:27:07;14.80;99.90
5675;DHT22;2860;54.284;10.158;2022-09-30T14:32:19;14.60;99.90
5675;DHT22;2860;54.284;10.158;2022-09-30T14:34:46;14.50;99.90
5675;DHT22;2860;54.284;10.158;2022-09-30T14:37:29;14.40;99.90
5675;DHT22;2860;54.284;10.158;2022-09-30T14:39:56;14.20;99.90
5675;DHT22;2860;54.284;10.158;2022-09-30T14:44:56;13.90;99.90
5675;DHT22;2860;54.284;10.158;2022-09-30T14:47:32;13.80;99.90
5675;DHT22;2860;54.284;10.158;2022-09-30T14:50:00;13.80;99.90
5675;DHT22;2860;54.284;10.158;2022-09-30T14:52:41;13.90;99.90
5675;DHT22;2860;54.284;10.158;2022-09-30T14:55:30;14.00;99.90
5675;DHT22;2860;54.284;10.158;2022-09-30T14:58:20;14.20;99.90
5675;DHT22;2860;54.284;10.158;2022-09-30T15:00:54;14.20;99.90
5675;DHT22;2860;54.284;10.158;2022-09-30T15:03:21;14.30;99.90
5675;DHT22;2860;54.284;10.158;2022-09-30T15:05:46;14.30;99.90
5675;DHT22;2860;54.284;10.158;2022-09-30T15:08:17;14.30;99.90
5675;DHT22;2860;54.284;10.158;2022-09-30T15:10:53;14.20;99.90
5675;DHT22;2860;54.284;10.158;2022-09-30T15:13:22;14.10;99.90
5675;DHT22;2860;54.284;10.158;2022-09-30T15:15:48;14.00;99.90
5675;DHT22;2860;54.284;10.158;2022-09-30T15:18:32;13.90;99.90
5675;DHT22;2860;54.284;10.158;2022-09-30T15:21:11;13.80;99.90
5675;DHT22;2860;54.284;10.158;2022-09-30T15:23:40;13.80;99.90
5675;DHT22;2860;54.284;10.158;2022-09-30T15:26:10;13.80;99.90
5675;DHT22;2860;54.284;10.158;2022-09-30T15:28:36;13.70;99.90
5675;DHT22;2860;54.284;10.158;2022-09-30T15:31:02;13.60;99.90
5675;DHT22;2860;54.284;10.158;2022-09-30T15:33:29;13.50;99.90
5675;DHT22;2860;54.284;10.158;2022-09-30T15:36:04;13.40;99.90
5675;DHT22;2860;54.284;10.158;2022-09-30T15:38:32;13.30;99.90
5675;DHT22;2860;54.284;10.158;2022-09-30T15:41:09;13.20;99.90
5675;DHT22;2860;54.284;10.158;2022-09-30T15:43:38;13.20;99.90
5675;DHT22;2860;54.284;10.158;2022-09-30T15:48:45;13.20;99.90
5675;DHT22;2860;54.284;10.158;2022-09-30T15:54:00;13.10;99.90
5675;DHT22;2860;54.284;10.158;2022-09-30T15:56:34;13.00;99.90
5675;DHT22;2860;54.284;10.158;2022-09-30T15:59:12;13.10;99.90
5675;DHT22;2860;54.284;10.158;2022-09-30T16:06:59;13.20;99.90
5675;DHT22;2860;54.284;10.158;2022-09-30T16:09:39;13.10;99.90
5675;DHT22;2860;54.284;10.158;2022-09-30T16:12:05;13.00;99.90
5675;DHT22;2860;54.284;10.158;2022-09-30T16:17:20;12.70;99.90
5675;DHT22;2860;54.284;10.158;2022-09-30T16:19:58;12.60;99.90
5675;DHT22;2860;54.284;10.158;2022-09-30T16:25:26;12.40;99.90
5675;DHT22;2860;54.284;10.158;2022-09-30T16:27:56;12.30;99.90
5675;DHT22;2860;54.284;10.158;2022-09-30T16:30:22;12.20;99.90
5675;DHT22;2860;54.284;10.158;2022-09-30T16:32:52;12.10;99.90
5675;DHT22;2860;54.284;10.158;2022-09-30T16:35:21;12.00;99.90
5675;DHT22;2860;54.284;10.158;2022-09-30T16:37:48;11.90;99.90
5675;DHT22;2860;54.284;10.158;2022-09-30T16:40:17;11.80;99.90
5675;DHT22;2860;54.284;10.158;2022-09-30T16:42:43;11.60;99.90
5675;DHT22;2860;54.284;10.158;2022-09-30T16:45:12;11.50;99.90
5675;DHT22;2860;54.284;10.158;2022-09-30T16:47:39;11.40;99.90
5675;DHT22;2860;54.284;10.158;2022-09-30T16:50:22;11.30;99.90
5675;DHT22;2860;54.284;10.158;2022-09-30T16:52:48;11.20;99.90
5675;DHT22;2860;54.284;10.158;2022-09-30T16:55:14;11.10;99.90
5675;DHT22;2860;54.284;10.158;2022-09-30T16:57:40;11.00;99.90
5675;DHT22;2860;54.284;10.158;2022-09-30T17:00:06;10.90;99.90
5675;DHT22;2860;54.284;10.158;2022-09-30T17:02:31;10.70;99.90
5675;DHT22;2860;54.284;10.158;2022-09-30T17:04:57;10.70;99.90
5675;DHT22;2860;54.284;10.158;2022-09-30T17:07:22;10.60;99.90
5675;DHT22;2860;54.284;10.158;2022-09-30T17:09:48;10.50;99.90
5675;DHT22;2860;54.284;10.158;2022-09-30T17:12:13;10.50;99.90
5675;DHT22;2860;54.284;10.158;2022-09-30T17:14:40;10.40;99.90
5675;DHT22;2860;54.284;10.158;2022-09-30T17:17:08;10.30;99.90
5675;DHT22;2860;54.284;10.158;2022-09-30T17:19:33;10.20;99.90
5675;DHT22;2860;54.284;10.158;2022-09-30T17:22:01;10.20;99.90
5675;DHT22;2860;54.284;10.158;2022-09-30T17:24:27;10.10;99.90
5675;DHT22;2860;54.284;10.158;2022-09-30T17:26:52;10.00;99.90
5675;DHT22;2860;54.284;10.158;2022-09-30T17:29:18;10.00;99.90
5675;DHT22;2860;54.284;10.158;2022-09-30T17:31:43;10.00;99.90
5675;DHT22;2860;54.284;10.158;2022-09-30T17:34:09;10.10;99.90
5675;DHT22;2860;54.284;10.158;2022-09-30T17:36:34;10.10;99.90
5675;DHT22;2860;54.284;10.158;2022-09-30T17:39:01;10.20;99.90
5675;DHT22;2860;54.284;10.158;2022-09-30T17:41:26;10.20;99.90
5675;DHT22;2860;54.284;10.158;2022-09-30T17:44:11;10.20;99.90
5675;DHT22;2860;54.284;10.158;2022-09-30T17:46:42;10.20;99.90
5675;DHT22;2860;54.284;10.158;2022-09-30T17:49:08;10.20;99.90
5675;DHT22;2860;54.284;10.158;2022-09-30T17:51:34;10.10;99.90
5675;DHT22;2860;54.284;10.158;2022-09-30T17:54:04;10.10;99.90
5675;DHT22;2860;54.284;10.158;2022-09-30T17:56:31;10.00;99.90
5675;DHT22;2860;54.284;10.158;2022-09-30T17:58:57;9.90;99.90
5675;DHT22;2860;54.284;10.158;2022-09-30T18:01:24;9.80;99.90
5675;DHT22;2860;54.284;10.158;2022-09-30T18:03:50;9.80;99.90
5675;DHT22;2860;54.284;10.158;2022-09-30T18:06:18;9.70;99.90
5675;DHT22;2860;54.284;10.158;2022-09-30T18:08:48;9.80;99.90
5675;DHT22;2860;54.284;10.158;2022-09-30T18:11:24;9.80;99.90
5675;DHT22;2860;54.284;10.158;2022-09-30T18:13:52;9.80;99.90
5675;DHT22;2860;54.284;10.158;2022-09-30T18:16:20;9.90;99.90
5675;DHT22;2860;54.284;10.158;2022-09-30T18:18:45;9.90;99.90
5675;DHT22;2860;54.284;10.158;2022-09-30T18:21:11;9.90;99.90
5675;DHT22;2860;54.284;10.158;2022-09-30T18:23:36;10.00;99.90
5675;DHT22;2860;54.284;10.158;2022-09-30T18:26:02;9.90;99.90
5675;DHT22;2860;54.284;10.158;2022-09-30T18:28:27;9.90;99.90
5675;DHT22;2860;54.284;10.158;2022-09-30T18:30:53;9.80;99.90
5675;DHT22;2860;54.284;10.158;2022-09-30T18:33:18;9.80;99.90
5675;DHT22;2860;54.284;10.158;2022-09-30T18:35:45;9.70;99.90
5675;DHT22;2860;54.284;10.158;2022-09-30T18:38:12;9.60;99.90
5675;DHT22;2860;54.284;10.158;2022-09-30T18:40:41;9.50;99.90
5675;DHT22;2860;54.284;10.158;2022-09-30T18:43:11;9.40;99.90
5675;DHT22;2860;54.284;10.158;2022-09-30T18:45:37;9.30;99.90
5675;DHT22;2860;54.284;10.158;2022-09-30T18:48:04;9.30;99.90
5675;DHT22;2860;54.284;10.158;2022-09-30T18:50:31;9.20;99.90
5675;DHT22;2860;54.284;10.158;2022-09-30T18:52:57;9.20;99.90
5675;DHT22;2860;54.284;10.158;2022-09-30T18:55:23;9.10;99.90
5675;DHT22;2860;54.284;10.158;2022-09-30T18:57:52;9.10;99.90
5675;DHT22;2860;54.284;10.158;2022-09-30T19:00:18;9.00;99.90